createdAt,value
2018-05-27T00:01:57.233Z,18.10
2018-05-27T00:04:25.808Z,18.10
2018-05-27T00:06:53.990Z,18.10
2018-05-27T00:09:22.056Z,18.00
2018-05-27T00:11:50.099Z,18.00
2018-05-27T00:14:18.305Z,18.00
2018-05-27T00:16:46.476Z,18.00
2018-05-27T00:19:14.946Z,18.00
2018-05-27T00:21:43.142Z,17.90
2018-05-27T00:24:11.594Z,17.80
2018-05-27T00:26:40.363Z,17.70
2018-05-27T00:29:08.590Z,17.70
2018-05-27T00:31:37.162Z,17.70
2018-05-27T00:34:05.704Z,17.70
2018-05-27T00:36:34.094Z,17.70
2018-05-27T00:39:02.496Z,17.70
2018-05-27T00:41:30.645Z,17.70
2018-05-27T00:43:59.038Z,17.60
2018-05-27T00:46:27.328Z,17.60
2018-05-27T00:48:55.598Z,17.60
2018-05-27T00:51:24.059Z,17.50
2018-05-27T00:53:59.909Z,17.50
2018-05-27T00:56:28.327Z,17.50
2018-05-27T00:58:56.585Z,17.50
2018-05-27T01:01:24.852Z,17.40
2018-05-27T01:03:53.066Z,17.40
2018-05-27T01:06:22.849Z,17.40
2018-05-27T01:08:51.260Z,17.30
2018-05-27T01:11:20.250Z,17.20
2018-05-27T01:13:49.025Z,17.20
2018-05-27T01:16:17.797Z,17.20
2018-05-27T01:18:45.761Z,17.20
2018-05-27T01:21:14.330Z,17.20
2018-05-27T01:23:42.740Z,17.20
2018-05-27T01:26:11.104Z,17.10
2018-05-27T01:28:39.156Z,17.10
2018-05-27T01:31:07.662Z,17.10
2018-05-27T01:33:35.964Z,17.10
2018-05-27T01:36:04.730Z,17.00
2018-05-27T01:38:33.082Z,17.00
2018-05-27T01:41:01.472Z,17.00
2018-05-27T01:43:30.064Z,17.00
2018-05-27T01:45:58.450Z,17.00
2018-05-27T01:48:26.821Z,17.00
2018-05-27T01:50:55.768Z,17.00
2018-05-27T01:53:23.982Z,16.90
2018-05-27T01:55:52.047Z,17.00
2018-05-27T01:58:20.549Z,16.90
2018-05-27T02:00:49.039Z,16.70
2018-05-27T02:03:17.706Z,16.60
2018-05-27T02:05:46.147Z,16.60
2018-05-27T02:08:14.777Z,16.50
2018-05-27T02:10:43.127Z,16.60
2018-05-27T02:13:11.314Z,16.60
2018-05-27T02:15:39.384Z,16.60
2018-05-27T02:18:07.464Z,16.60
2018-05-27T02:20:35.752Z,16.50
2018-05-27T02:23:05.127Z,16.40
2018-05-27T02:25:32.998Z,16.40
2018-05-27T02:28:01.375Z,16.40
2018-05-27T02:30:29.775Z,16.40
2018-05-27T02:32:58.219Z,16.40
2018-05-27T02:35:26.608Z,16.40
2018-05-27T02:37:54.852Z,16.40
2018-05-27T02:40:23.273Z,16.40
2018-05-27T02:42:51.822Z,16.30
2018-05-27T02:45:19.952Z,16.30
2018-05-27T02:47:49.127Z,16.20
2018-05-27T02:50:17.188Z,16.20
2018-05-27T02:52:45.449Z,16.20
2018-05-27T02:55:14.663Z,16.30
2018-05-27T02:57:42.643Z,16.30
2018-05-27T03:00:10.801Z,16.30
2018-05-27T03:02:39.037Z,16.40
2018-05-27T03:05:06.950Z,16.40
2018-05-27T03:07:34.812Z,16.40
2018-05-27T03:10:02.988Z,16.40
2018-05-27T03:12:31.044Z,16.40
2018-05-27T03:14:59.334Z,16.40
2018-05-27T03:17:27.402Z,16.40
2018-05-27T03:19:55.647Z,16.40
2018-05-27T03:22:24.974Z,16.40
2018-05-27T03:24:53.531Z,16.40
2018-05-27T03:27:21.713Z,16.40
2018-05-27T03:29:49.914Z,16.50
2018-05-27T03:32:18.054Z,16.50
2018-05-27T03:34:46.353Z,16.50
2018-05-27T03:37:15.119Z,16.50
2018-05-27T03:39:43.211Z,16.50
2018-05-27T03:42:12.412Z,16.60
2018-05-27T03:44:40.689Z,16.60
2018-05-27T03:47:09.091Z,16.70
2018-05-27T03:49:38.571Z,16.70
2018-05-27T03:52:06.816Z,16.70
2018-05-27T03:54:34.709Z,16.80
2018-05-27T03:57:02.888Z,16.90
2018-05-27T03:59:31.341Z,16.90
2018-05-27T04:01:59.744Z,16.90
2018-05-27T04:04:53.618Z,17.00
2018-05-27T04:07:33.572Z,17.10
2018-05-27T04:10:01.552Z,17.20
2018-05-27T04:12:29.577Z,17.20
2018-05-27T04:14:58.098Z,17.30
2018-05-27T04:17:26.554Z,17.40
2018-05-27T04:19:54.772Z,17.40
2018-05-27T04:22:23.584Z,17.70
2018-05-27T04:24:51.500Z,17.70
2018-05-27T04:27:19.878Z,17.80
2018-05-27T04:29:47.936Z,17.90
2018-05-27T04:32:16.030Z,17.90
2018-05-27T04:34:44.913Z,17.90
2018-05-27T04:37:13.404Z,17.90
2018-05-27T04:39:41.566Z,18.10
2018-05-27T04:42:09.955Z,18.20
2018-05-27T04:44:38.282Z,18.30
2018-05-27T04:47:06.494Z,18.30
2018-05-27T04:49:34.871Z,18.40
2018-05-27T04:52:03.424Z,18.50
2018-05-27T04:54:31.527Z,18.50
2018-05-27T04:56:59.992Z,18.50
2018-05-27T04:59:28.200Z,18.70
2018-05-27T05:01:56.544Z,18.90
2018-05-27T05:04:24.753Z,18.90
2018-05-27T05:06:52.973Z,19.00
2018-05-27T05:09:21.311Z,19.10
2018-05-27T05:11:50.492Z,19.00
2018-05-27T05:14:18.648Z,19.00
2018-05-27T05:16:46.950Z,19.00
2018-05-27T05:19:15.313Z,19.10
2018-05-27T05:21:43.678Z,19.20
2018-05-27T05:24:12.235Z,19.30
2018-05-27T05:26:40.844Z,19.50
2018-05-27T05:29:08.948Z,19.60
2018-05-27T05:31:38.146Z,19.80
2018-05-27T05:34:07.442Z,19.90
2018-05-27T05:36:36.415Z,20.10
2018-05-27T05:39:04.503Z,20.00
2018-05-27T05:41:32.463Z,20.20
2018-05-27T05:44:00.685Z,20.40
2018-05-27T05:46:29.599Z,20.40
2018-05-27T05:48:57.484Z,20.50
2018-05-27T05:51:25.452Z,20.50
2018-05-27T05:53:53.539Z,20.70
2018-05-27T05:56:21.807Z,20.80
2018-05-27T05:58:50.610Z,21.00
2018-05-27T06:01:18.672Z,21.10
2018-05-27T06:03:47.848Z,21.10
2018-05-27T06:06:16.773Z,21.30
2018-05-27T06:08:45.863Z,21.50
2018-05-27T06:11:14.663Z,21.40
2018-05-27T06:13:43.820Z,21.60
2018-05-27T06:16:12.012Z,21.60
2018-05-27T06:18:41.680Z,21.70
2018-05-27T06:21:10.348Z,21.80
2018-05-27T06:23:38.580Z,21.80
2018-05-27T06:26:06.920Z,22.00
2018-05-27T06:28:34.816Z,22.20
2018-05-27T06:31:03.312Z,22.30
2018-05-27T06:33:31.552Z,22.30
2018-05-27T06:35:59.540Z,22.50
2018-05-27T06:38:27.611Z,22.50
2018-05-27T06:40:56.303Z,22.60
2018-05-27T06:43:24.808Z,22.70
2018-05-27T06:45:54.504Z,23.50
2018-05-27T06:48:22.987Z,23.40
2018-05-27T06:50:51.260Z,23.90
2018-05-27T06:53:19.742Z,24.40
2018-05-27T06:55:48.022Z,24.90
2018-05-27T06:58:17.237Z,26.00
2018-05-27T07:00:46.109Z,26.50
2018-05-27T07:03:15.274Z,27.30
2018-05-27T07:05:43.660Z,27.20
2018-05-27T07:08:12.238Z,28.10
2018-05-27T07:10:40.814Z,28.70
2018-05-27T07:13:09.022Z,29.20
2018-05-27T07:15:38.158Z,29.90
2018-05-27T07:18:07.278Z,30.30
2018-05-27T07:20:37.214Z,30.30
2018-05-27T07:23:05.494Z,30.90
2018-05-27T07:25:34.478Z,31.10
2018-05-27T07:28:03.851Z,31.60
2018-05-27T07:30:32.478Z,31.50
2018-05-27T07:33:00.838Z,32.30
2018-05-27T07:35:30.038Z,32.80
2018-05-27T07:37:58.317Z,33.30
2018-05-27T07:40:26.694Z,33.40
2018-05-27T07:42:55.693Z,33.40
2018-05-27T07:45:24.061Z,33.40
2018-05-27T07:47:52.037Z,33.30
2018-05-27T07:50:20.645Z,33.70
2018-05-27T07:52:49.718Z,34.80
2018-05-27T07:55:17.997Z,34.80
2018-05-27T07:57:47.118Z,35.70
2018-05-27T08:00:16.489Z,35.70
2018-05-27T08:02:44.877Z,35.70
2018-05-27T08:05:12.941Z,36.00
2018-05-27T08:07:41.438Z,36.10
2018-05-27T08:10:10.654Z,35.80
2018-05-27T08:12:39.526Z,35.80
2018-05-27T08:15:09.000Z,36.00
2018-05-27T08:17:37.735Z,35.90
2018-05-27T08:20:06.454Z,36.40
2018-05-27T08:22:34.548Z,36.80
2018-05-27T08:25:02.978Z,37.20
2018-05-27T08:27:31.422Z,38.00
2018-05-27T08:30:00.814Z,38.40
2018-05-27T08:32:29.094Z,39.00
2018-05-27T08:34:57.489Z,38.30
2018-05-27T08:37:26.518Z,38.80
2018-05-27T08:39:54.758Z,38.90
2018-05-27T08:42:23.550Z,39.30
2018-05-27T08:44:53.365Z,39.20
2018-05-27T08:47:22.517Z,39.50
2018-05-27T08:49:50.717Z,39.50
2018-05-27T08:52:18.863Z,40.30
2018-05-27T08:54:47.342Z,41.20
2018-05-27T08:57:15.670Z,42.30
2018-05-27T08:59:44.755Z,41.50
2018-05-27T09:02:14.757Z,41.80
2018-05-27T09:04:43.941Z,41.80
2018-05-27T09:07:12.348Z,42.40
2018-05-27T09:09:41.797Z,42.70
2018-05-27T09:12:10.317Z,42.70
2018-05-27T09:14:39.532Z,44.40
2018-05-27T09:17:08.837Z,45.50
2018-05-27T09:19:38.244Z,45.40
2018-05-27T09:22:06.613Z,45.40
2018-05-27T09:24:35.731Z,45.40
2018-05-27T09:27:04.398Z,45.40
2018-05-27T09:29:32.672Z,44.10
2018-05-27T09:32:02.255Z,42.80
2018-05-27T09:34:30.824Z,42.80
2018-05-27T09:36:59.010Z,43.40
2018-05-27T09:39:27.310Z,43.60
2018-05-27T09:41:56.361Z,45.80
2018-05-27T09:44:25.285Z,45.70
2018-05-27T09:46:54.268Z,46.20
2018-05-27T09:49:22.472Z,46.80
2018-05-27T09:51:50.931Z,47.70
2018-05-27T09:54:19.478Z,46.70
2018-05-27T09:56:48.095Z,46.60
2018-05-27T09:59:16.453Z,47.40
2018-05-27T10:01:44.831Z,48.10
2018-05-27T10:04:13.414Z,48.00
2018-05-27T10:06:42.796Z,47.00
2018-05-27T10:09:11.293Z,46.90
2018-05-27T10:11:39.899Z,46.30
2018-05-27T10:14:08.361Z,45.90
2018-05-27T10:16:37.153Z,46.10
2018-05-27T10:19:06.154Z,47.70
2018-05-27T10:21:34.632Z,47.70
2018-05-27T10:24:03.076Z,48.00
2018-05-27T10:26:31.617Z,48.50
2018-05-27T10:29:00.792Z,49.10
2018-05-27T10:31:29.581Z,49.00
2018-05-27T10:33:58.550Z,49.20
2018-05-27T10:36:26.851Z,50.10
2018-05-27T10:38:55.226Z,50.30
2018-05-27T10:41:23.696Z,50.10
2018-05-27T10:43:52.198Z,48.90
2018-05-27T10:46:21.400Z,47.60
2018-05-27T10:48:50.524Z,48.50
2018-05-27T10:51:19.084Z,48.50
2018-05-27T10:53:48.980Z,48.40
2018-05-27T10:56:17.142Z,48.30
2018-05-27T10:58:45.636Z,48.80
2018-05-27T11:01:14.836Z,48.60
2018-05-27T11:03:43.942Z,49.10
2018-05-27T11:06:13.117Z,49.40
2018-05-27T11:08:42.181Z,49.50
2018-05-27T11:11:10.701Z,49.70
2018-05-27T11:13:40.117Z,48.10
2018-05-27T11:16:09.069Z,48.10
2018-05-27T11:18:37.865Z,48.10
2018-05-27T11:21:06.357Z,48.70
2018-05-27T11:23:34.965Z,48.30
2018-05-27T11:26:04.789Z,48.80
2018-05-27T11:28:32.957Z,48.80
2018-05-27T11:31:02.542Z,48.40
2018-05-27T11:33:31.741Z,49.30
2018-05-27T11:36:00.845Z,49.40
2018-05-27T11:38:30.319Z,48.90
2018-05-27T11:40:58.399Z,48.80
2018-05-27T11:43:28.160Z,47.00
2018-05-27T11:45:56.719Z,47.00
2018-05-27T11:48:26.057Z,46.70
2018-05-27T11:50:54.575Z,46.60
2018-05-27T11:53:23.064Z,47.10
2018-05-27T11:55:53.049Z,47.40
2018-05-27T11:58:21.168Z,47.70
2018-05-27T12:00:50.427Z,48.30
2018-05-27T12:03:18.932Z,48.30
2018-05-27T12:05:48.131Z,48.40
2018-05-27T12:08:16.607Z,48.30
2018-05-27T12:10:44.783Z,47.90
2018-05-27T12:13:13.996Z,47.00
2018-05-27T12:15:43.395Z,47.00
2018-05-27T12:18:12.996Z,46.60
2018-05-27T12:20:41.356Z,46.50
2018-05-27T12:23:10.460Z,47.90
2018-05-27T12:25:39.150Z,47.80
2018-05-27T12:28:07.842Z,48.30
2018-05-27T12:30:36.045Z,47.90
2018-05-27T12:33:04.753Z,47.20
2018-05-27T12:35:33.392Z,46.10
2018-05-27T12:38:02.600Z,45.30
2018-05-27T12:40:31.673Z,45.70
2018-05-27T12:43:00.040Z,45.70
2018-05-27T12:45:28.520Z,44.60
2018-05-27T12:47:57.559Z,43.70
2018-05-27T12:50:25.826Z,43.50
2018-05-27T12:53:10.879Z,44.80
2018-05-27T12:55:39.418Z,44.80
2018-05-27T12:58:07.535Z,45.80
2018-05-27T13:00:36.920Z,47.70
2018-05-27T13:03:06.225Z,46.70
2018-05-27T13:05:34.904Z,46.70
2018-05-27T13:08:03.480Z,46.50
2018-05-27T13:10:31.672Z,46.70
2018-05-27T13:13:00.736Z,45.90
2018-05-27T13:15:29.656Z,45.90
2018-05-27T13:17:58.131Z,45.80
2018-05-27T13:20:26.320Z,46.30
2018-05-27T13:22:55.501Z,47.00
2018-05-27T13:25:23.875Z,47.00
2018-05-27T13:27:53.276Z,47.70
2018-05-27T13:30:21.779Z,47.70
2018-05-27T13:32:51.234Z,48.70
2018-05-27T13:35:20.731Z,48.70
2018-05-27T13:37:49.451Z,48.50
2018-05-27T13:40:18.035Z,48.60
2018-05-27T13:42:46.715Z,48.80
2018-05-27T13:45:15.123Z,48.80
2018-05-27T13:47:44.425Z,47.40
2018-05-27T13:50:15.011Z,46.00
2018-05-27T13:52:43.499Z,46.00
2018-05-27T13:55:12.415Z,46.30
2018-05-27T13:57:41.799Z,46.10
2018-05-27T14:00:09.996Z,46.10
2018-05-27T14:02:38.468Z,44.90
2018-05-27T14:05:06.985Z,43.90
2018-05-27T14:07:35.663Z,43.60
2018-05-27T14:10:03.809Z,43.10
2018-05-27T14:12:32.408Z,43.30
2018-05-27T14:15:01.583Z,42.30
2018-05-27T14:17:30.272Z,42.30
2018-05-27T14:19:58.623Z,42.10
2018-05-27T14:22:26.943Z,42.00
2018-05-27T14:24:56.235Z,42.90
2018-05-27T14:27:25.021Z,42.30
2018-05-27T14:29:53.293Z,42.20
2018-05-27T14:32:21.494Z,42.30
2018-05-27T14:34:50.499Z,41.60
2018-05-27T14:37:19.280Z,41.60
2018-05-27T14:39:48.110Z,41.70
2018-05-27T14:42:16.641Z,42.00
2018-05-27T14:44:45.739Z,42.00
2018-05-27T14:47:13.898Z,42.00
2018-05-27T14:49:43.194Z,40.80
2018-05-27T14:52:11.978Z,39.70
2018-05-27T14:54:40.857Z,39.70
2018-05-27T14:57:15.914Z,39.70
2018-05-27T14:59:44.987Z,39.40
2018-05-27T15:02:13.178Z,39.40
2018-05-27T15:04:42.378Z,38.00
2018-05-27T15:07:11.371Z,37.50
2018-05-27T15:09:40.917Z,37.30
2018-05-27T15:12:09.309Z,37.20
2018-05-27T15:14:37.610Z,36.60
2018-05-27T15:17:05.898Z,36.10
2018-05-27T15:19:35.706Z,35.00
2018-05-27T15:22:04.090Z,34.90
2018-05-27T15:24:33.178Z,34.80
2018-05-27T15:27:01.628Z,34.80
2018-05-27T15:29:29.834Z,35.10
2018-05-27T15:31:58.958Z,35.40
2018-05-27T15:34:27.310Z,35.40
2018-05-27T15:36:55.466Z,35.00
2018-05-27T15:39:23.738Z,34.70
2018-05-27T15:41:51.930Z,34.20
2018-05-27T15:44:20.189Z,34.10
2018-05-27T15:46:48.374Z,33.70
2018-05-27T15:49:16.455Z,33.40
2018-05-27T15:51:46.359Z,32.60
2018-05-27T15:54:14.848Z,32.60
2018-05-27T15:56:43.423Z,32.30
2018-05-27T15:59:11.810Z,32.30
2018-05-27T16:01:40.879Z,32.30
2018-05-27T16:04:09.095Z,32.40
2018-05-27T16:06:38.287Z,32.00
2018-05-27T16:09:07.892Z,31.90
2018-05-27T16:11:36.783Z,32.10
2018-05-27T16:14:06.168Z,32.10
2018-05-27T16:16:34.863Z,32.10
2018-05-27T16:19:03.247Z,32.00
2018-05-27T16:21:32.719Z,31.70
2018-05-27T16:24:01.327Z,31.60
2018-05-27T16:26:30.007Z,31.60
2018-05-27T16:28:58.575Z,31.50
2018-05-27T16:31:27.088Z,31.20
2018-05-27T16:33:56.287Z,31.20
2018-05-27T16:36:26.319Z,31.30
2018-05-27T16:38:54.783Z,31.20
2018-05-27T16:41:23.855Z,31.30
2018-05-27T16:43:52.239Z,31.30
2018-05-27T16:46:20.559Z,31.30
2018-05-27T16:48:49.415Z,31.20
2018-05-27T16:51:17.994Z,31.00
2018-05-27T16:53:46.559Z,31.10
2018-05-27T16:56:14.543Z,31.00
2018-05-27T16:58:43.647Z,30.50
2018-05-27T17:01:12.847Z,30.40
2018-05-27T17:03:42.142Z,30.40
2018-05-27T17:06:11.134Z,30.30
2018-05-27T17:08:39.695Z,30.30
2018-05-27T17:11:08.207Z,30.10
2018-05-27T17:13:37.903Z,30.00
2018-05-27T17:16:07.287Z,29.90
2018-05-27T17:18:36.184Z,29.90
2018-05-27T17:21:04.802Z,29.80
2018-05-27T17:23:33.983Z,29.60
2018-05-27T17:26:03.588Z,29.40
2018-05-27T17:28:33.185Z,29.40
2018-05-27T17:31:01.895Z,29.40
2018-05-27T17:33:31.067Z,29.20
2018-05-27T17:35:59.512Z,29.20
2018-05-27T17:38:29.055Z,29.40
2018-05-27T17:40:57.695Z,29.30
2018-05-27T17:43:26.639Z,29.30
2018-05-27T17:45:55.023Z,29.20
2018-05-27T17:48:24.224Z,28.90
2018-05-27T17:50:53.297Z,28.60
2018-05-27T17:53:21.575Z,28.60
2018-05-27T17:55:50.368Z,28.60
2018-05-27T17:58:18.543Z,28.50
2018-05-27T18:00:47.342Z,28.40
2018-05-27T18:03:16.719Z,28.30
2018-05-27T18:05:45.007Z,28.30
2018-05-27T18:08:13.695Z,28.20
2018-05-27T18:10:42.178Z,28.10
2018-05-27T18:13:11.148Z,28.00
2018-05-27T18:15:39.549Z,28.00
2018-05-27T18:18:08.032Z,27.90
2018-05-27T18:20:36.604Z,27.80
2018-05-27T18:23:05.087Z,27.80
2018-05-27T18:25:33.151Z,27.60
2018-05-27T18:28:01.728Z,27.60
2018-05-27T18:30:30.224Z,27.50
2018-05-27T18:32:58.816Z,27.40
2018-05-27T18:35:27.807Z,27.20
2018-05-27T18:37:57.359Z,27.20
2018-05-27T18:40:25.743Z,27.20
2018-05-27T18:42:53.847Z,27.10
2018-05-27T18:45:22.143Z,27.00
2018-05-27T18:47:51.167Z,26.70
2018-05-27T18:50:19.407Z,26.70
2018-05-27T18:52:48.399Z,26.70
2018-05-27T18:55:17.366Z,26.50
2018-05-27T18:57:49.342Z,26.50
2018-05-27T19:00:17.698Z,26.40
2018-05-27T19:02:46.092Z,26.40
2018-05-27T19:05:13.952Z,26.30
2018-05-27T19:07:47.065Z,26.30
2018-05-27T19:10:16.033Z,26.00
2018-05-27T19:12:44.455Z,25.90
2018-05-27T19:15:13.213Z,25.90
2018-05-27T19:17:41.473Z,25.90
2018-05-27T19:20:10.373Z,25.80
2018-05-27T19:22:40.513Z,25.70
2018-05-27T19:25:10.453Z,25.50
2018-05-27T19:27:38.353Z,25.50
2018-05-27T19:33:04.673Z,25.30
2018-05-27T19:35:32.795Z,25.10
2018-05-27T19:38:00.753Z,25.10
2018-05-27T19:40:29.956Z,25.00
2018-05-27T19:42:57.933Z,25.00
2018-05-27T19:48:39.392Z,25.00
2018-05-27T19:51:10.881Z,24.90
2018-05-27T19:53:42.433Z,24.80
2018-05-27T19:56:10.617Z,24.70
2018-05-27T19:58:39.240Z,24.70
2018-05-27T20:01:08.073Z,24.50
2018-05-27T20:03:41.952Z,24.50
2018-05-27T20:06:14.533Z,24.40
2018-05-27T20:08:47.304Z,24.40
2018-05-27T20:11:18.368Z,24.30
2018-05-27T20:13:49.251Z,24.10
2018-05-27T20:16:17.912Z,24.10
2018-05-27T20:18:46.066Z,24.00
2018-05-27T20:21:14.572Z,24.10
2018-05-27T20:23:42.461Z,24.10
2018-05-27T20:26:11.473Z,23.90
2018-05-27T20:34:44.793Z,23.70
2018-05-27T20:37:15.572Z,23.70
2018-05-27T20:39:45.352Z,23.60
2018-05-27T20:42:16.473Z,23.60
2018-05-27T20:44:47.552Z,23.50
2018-05-27T20:47:18.172Z,23.50
2018-05-27T20:49:48.092Z,23.50
2018-05-27T20:52:20.212Z,23.40
2018-05-27T20:54:48.572Z,23.40
2018-05-27T20:57:18.952Z,23.40
2018-05-27T20:59:49.192Z,23.30
2018-05-27T21:02:17.592Z,23.30
2018-05-27T21:04:47.032Z,23.30
2018-05-27T21:07:17.432Z,23.30
2018-05-27T21:09:46.774Z,23.20
2018-05-27T21:12:15.112Z,23.20
2018-05-27T21:14:43.400Z,23.20
2018-05-27T21:17:11.491Z,23.20
2018-05-27T21:19:41.604Z,23.00
2018-05-27T21:22:12.172Z,23.00
2018-05-27T21:24:45.411Z,23.10
2018-05-27T21:27:14.072Z,23.10
2018-05-27T21:30:09.292Z,23.10
2018-05-27T21:32:40.712Z,23.00
2018-05-27T21:35:09.112Z,23.00
2018-05-27T21:37:39.792Z,22.90
2018-05-27T21:40:14.097Z,22.90
2018-05-27T21:42:44.612Z,22.80
2018-05-27T21:45:15.391Z,22.80
2018-05-27T21:47:44.692Z,22.80
2018-05-27T21:50:15.492Z,22.80
2018-05-27T21:52:43.632Z,22.70
2018-05-27T21:55:11.992Z,22.60
2018-05-27T21:57:39.972Z,22.50
2018-05-27T22:00:08.052Z,22.50
2018-05-27T22:02:36.271Z,22.40
2018-05-27T22:05:04.184Z,22.50
2018-05-27T22:07:32.373Z,22.40
2018-05-27T22:10:00.232Z,22.40
2018-05-27T22:12:28.152Z,22.40
2018-05-27T22:14:56.158Z,22.30
2018-05-27T22:17:26.537Z,22.20
2018-05-27T22:19:57.630Z,22.20
2018-05-27T22:22:44.767Z,22.10
2018-05-27T22:43:48.792Z,21.70
2018-05-27T22:46:16.980Z,21.60
2018-05-27T22:48:45.652Z,21.70
2018-05-27T22:51:13.418Z,21.60
2018-05-27T22:53:41.037Z,21.60
2018-05-27T22:56:09.653Z,21.50
2018-05-27T22:58:37.857Z,21.50
2018-05-27T23:01:06.474Z,21.50
2018-05-27T23:03:34.999Z,21.60
2018-05-27T23:06:02.606Z,21.50
2018-05-27T23:08:30.512Z,21.50
2018-05-27T23:10:58.886Z,21.50
2018-05-27T23:13:26.751Z,21.40
2018-05-27T23:15:54.824Z,21.40
2018-05-27T23:18:22.821Z,21.40
2018-05-27T23:20:50.790Z,21.40
2018-05-27T23:23:18.829Z,21.40
2018-05-27T23:25:46.734Z,21.40
2018-05-27T23:28:15.699Z,21.30
2018-05-27T23:30:43.447Z,21.30
2018-05-27T23:33:11.112Z,21.30
2018-05-27T23:35:39.187Z,21.20
2018-05-27T23:38:06.972Z,21.20
2018-05-27T23:40:35.551Z,21.20
2018-05-27T23:43:03.182Z,21.20
2018-05-27T23:45:31.246Z,21.10
2018-05-27T23:47:59.452Z,21.00
2018-05-27T23:50:27.312Z,21.10
2018-05-27T23:52:55.477Z,21.10
2018-05-27T23:55:23.504Z,21.00
2018-05-27T23:57:52.267Z,20.90
